ESSV/VBY METAR and TAF weather

Enter ICAO airport designator
Station Type Date Time Source
ESSV METAR 2021/03/01 22:50 UTC NOAA

ESSV 012250Z AUTO 24009KT 9999 NCD 04/01 Q1025


Station Type Date Time Source
ESSV Decoded METAR 2021/03/01 22:50 UTC NOAA

Visby Flygplats, Sweden (ESSV) 57-40N 018-21E 47M
Mar 01, 2021 - 05:50 PM EST / 2021.03.01 2250 UTC
Wind: from the WSW (240 degrees) at 10 MPH (9 KT):0
Visibility: greater than 7 mile(s):0
Temperature: 39 F (4 C)
Dew Point: 33 F (1 C)
Relative Humidity: 80%
Pressure (altimeter): 30.27 in. Hg (1025 hPa)
ob: ESSV 012250Z AUTO 24009KT 9999 NCD 04/01 Q1025
cycle: 23

Station Type Date Time Source
ESSV TAF 2017/09/20 09:39 UTC NOAA

TAF COR TAF COR ESSV 200840Z 2009/2021 10005KT 9999 BKN030 PROB40 2009/2016 4000 TS SHRA BKN015CB

Example: see airport list